createdAt,value
2022-09-18T00:00:45.158Z,67.40
2022-09-18T00:03:12.046Z,67.40
2022-09-18T00:05:39.100Z,67.50
2022-09-18T00:08:05.835Z,67.70
2022-09-18T00:10:32.434Z,67.50
2022-09-18T00:12:59.135Z,67.50
2022-09-18T00:15:25.771Z,67.60
2022-09-18T00:17:52.393Z,67.70
2022-09-18T00:20:20.182Z,67.60
2022-09-18T00:22:47.162Z,67.60
2022-09-18T00:25:13.867Z,67.70
2022-09-18T00:27:40.467Z,67.80
2022-09-18T00:30:07.610Z,67.80
2022-09-18T00:32:34.227Z,67.80
2022-09-18T00:35:00.854Z,68.00
2022-09-18T00:37:28.269Z,67.80
2022-09-18T00:39:55.083Z,67.80
2022-09-18T00:42:21.753Z,67.80
2022-09-18T00:44:48.910Z,67.80
2022-09-18T00:47:33.603Z,67.70
2022-09-18T00:50:00.225Z,67.70
2022-09-18T00:52:28.522Z,67.70
2022-09-18T00:55:11.573Z,67.90
2022-09-18T00:57:41.304Z,67.70
2022-09-18T01:00:11.958Z,67.70
2022-09-18T01:02:39.738Z,67.70
2022-09-18T01:05:07.070Z,67.80
2022-09-18T01:07:57.370Z,67.70
2022-09-18T01:10:23.976Z,67.80
2022-09-18T01:12:57.712Z,67.80
2022-09-18T01:15:35.008Z,67.60
2022-09-18T01:18:07.638Z,67.60
2022-09-18T01:20:53.145Z,67.60
2022-09-18T01:23:19.730Z,67.70
2022-09-18T01:26:13.644Z,67.80
2022-09-18T01:28:55.725Z,67.80
2022-09-18T01:31:28.240Z,67.80
2022-09-18T01:33:58.840Z,67.80
2022-09-18T01:36:27.047Z,68.00
2022-09-18T01:38:53.676Z,67.80
2022-09-18T01:41:24.633Z,67.90
2022-09-18T01:43:54.537Z,67.80
2022-09-18T01:46:22.488Z,67.90
2022-09-18T01:49:09.474Z,67.60
2022-09-18T01:51:39.768Z,67.90
2022-09-18T01:54:13.964Z,67.90
2022-09-18T01:56:44.470Z,67.70
2022-09-18T01:59:13.122Z,67.70
2022-09-18T02:01:41.262Z,67.80
2022-09-18T02:04:11.298Z,67.90
2022-09-18T02:06:50.122Z,67.80
2022-09-18T02:09:16.785Z,68.10
2022-09-18T02:11:45.638Z,68.10
2022-09-18T02:14:16.009Z,68.20
2022-09-18T02:16:44.967Z,68.20
2022-09-18T02:19:18.462Z,67.90
2022-09-18T02:21:46.418Z,68.00
2022-09-18T02:24:15.626Z,68.00
2022-09-18T02:26:42.457Z,68.00
2022-09-18T02:29:10.638Z,68.00
2022-09-18T02:31:37.795Z,67.90
2022-09-18T02:34:04.592Z,68.00
2022-09-18T02:36:43.415Z,68.00
2022-09-18T02:39:23.724Z,68.00
2022-09-18T02:41:50.333Z,67.90
2022-09-18T02:44:20.909Z,68.00
2022-09-18T02:47:00.426Z,68.40
2022-09-18T02:49:33.841Z,68.00
2022-09-18T02:52:03.585Z,67.90
2022-09-18T02:54:32.531Z,67.90
2022-09-18T02:57:02.028Z,67.80
2022-09-18T02:59:31.165Z,67.70
2022-09-18T03:01:58.820Z,67.80
2022-09-18T03:04:26.778Z,67.70
2022-09-18T03:06:53.961Z,67.90
2022-09-18T03:09:20.829Z,67.90
2022-09-18T03:11:47.496Z,67.80
2022-09-18T03:14:14.127Z,67.90
2022-09-18T03:16:40.878Z,69.40
2022-09-18T03:19:07.534Z,68.00
2022-09-18T03:21:34.430Z,67.70
2022-09-18T03:24:01.239Z,67.90
2022-09-18T03:26:27.998Z,67.90
2022-09-18T03:28:54.615Z,67.80
2022-09-18T03:31:21.281Z,67.90
2022-09-18T03:33:48.022Z,67.90
2022-09-18T03:36:14.674Z,67.90
2022-09-18T03:38:41.756Z,68.50
2022-09-18T03:41:08.538Z,67.70
2022-09-18T03:43:35.320Z,68.10
2022-09-18T03:46:02.095Z,68.10
2022-09-18T03:48:28.839Z,68.10
2022-09-18T03:50:55.556Z,68.00
2022-09-18T03:53:22.262Z,67.80
2022-09-18T03:55:49.780Z,67.90
2022-09-18T03:58:16.467Z,67.80
2022-09-18T04:00:43.444Z,67.90
2022-09-18T04:03:10.118Z,68.00
2022-09-18T04:05:36.807Z,67.80
2022-09-18T04:08:05.261Z,67.80
2022-09-18T04:10:34.963Z,67.80
2022-09-18T04:13:01.658Z,67.90
2022-09-18T04:15:28.286Z,67.80
2022-09-18T04:17:55.314Z,67.90
2022-09-18T04:20:21.967Z,67.80
2022-09-18T04:22:48.638Z,67.90
2022-09-18T04:25:15.307Z,67.70
2022-09-18T04:27:42.138Z,67.80
2022-09-18T04:30:09.207Z,67.70
2022-09-18T04:32:35.806Z,67.70
2022-09-18T04:35:02.587Z,67.80
2022-09-18T04:37:29.176Z,67.60
2022-09-18T04:39:55.799Z,67.70
2022-09-18T04:42:22.605Z,67.50
2022-09-18T04:44:49.195Z,67.60
2022-09-18T04:47:15.969Z,68.00
2022-09-18T04:49:42.662Z,67.60
2022-09-18T04:52:09.279Z,67.60
2022-09-18T04:54:35.971Z,67.50
2022-09-18T04:57:02.628Z,67.80
2022-09-18T04:59:29.259Z,67.50
2022-09-18T05:01:55.935Z,67.50
2022-09-18T05:04:22.608Z,67.60
2022-09-18T05:06:49.184Z,67.60
2022-09-18T05:09:15.865Z,67.60
2022-09-18T05:11:42.483Z,67.80
2022-09-18T05:14:09.139Z,67.90
2022-09-18T05:16:35.826Z,67.90
2022-09-18T05:19:02.589Z,67.90
2022-09-18T05:21:29.610Z,67.50
2022-09-18T05:23:56.673Z,67.70
2022-09-18T05:26:23.455Z,67.70
2022-09-18T05:28:50.549Z,67.80
2022-09-18T05:31:17.232Z,67.70
2022-09-18T05:33:44.091Z,67.60
2022-09-18T05:36:10.866Z,67.40
2022-09-18T05:38:37.490Z,67.40
2022-09-18T05:41:04.212Z,67.70
2022-09-18T05:43:31.027Z,67.50
2022-09-18T05:45:57.929Z,67.60
2022-09-18T05:48:24.573Z,67.60
2022-09-18T05:50:52.096Z,67.50
2022-09-18T05:53:19.721Z,67.50
2022-09-18T05:55:46.305Z,67.70
2022-09-18T05:58:14.611Z,67.80
2022-09-18T06:00:41.724Z,67.60
2022-09-18T06:03:12.812Z,67.60
2022-09-18T06:05:39.564Z,67.70
2022-09-18T06:08:07.443Z,67.60
2022-09-18T06:10:36.114Z,67.50
2022-09-18T06:13:07.198Z,67.50
2022-09-18T06:15:34.441Z,67.50
2022-09-18T06:18:01.511Z,67.20
2022-09-18T06:20:28.269Z,67.30
2022-09-18T06:22:58.245Z,67.40
2022-09-18T06:25:25.004Z,67.70
2022-09-18T06:27:58.372Z,67.30
2022-09-18T06:30:26.217Z,67.80
2022-09-18T06:32:53.265Z,67.40
2022-09-18T06:35:20.603Z,67.80
2022-09-18T06:37:47.173Z,67.50
2022-09-18T06:40:13.960Z,67.60
2022-09-18T06:42:45.309Z,67.50
2022-09-18T06:45:12.786Z,68.30
2022-09-18T06:47:39.455Z,67.80
2022-09-18T06:50:07.416Z,67.80
2022-09-18T06:52:34.519Z,67.60
2022-09-18T06:55:01.149Z,67.60
2022-09-18T06:57:27.920Z,67.50
2022-09-18T06:59:54.552Z,67.40
2022-09-18T07:02:21.202Z,67.40
2022-09-18T07:04:48.002Z,67.40
2022-09-18T07:07:14.622Z,67.40
2022-09-18T07:09:41.310Z,67.40
2022-09-18T07:12:07.963Z,67.20
2022-09-18T07:14:34.597Z,67.30
2022-09-18T07:17:01.321Z,67.40
2022-09-18T07:19:27.958Z,67.40
2022-09-18T07:21:54.661Z,67.40
2022-09-18T07:24:21.272Z,67.40
2022-09-18T07:26:47.950Z,67.60
2022-09-18T07:29:14.544Z,67.20
2022-09-18T07:31:41.261Z,67.40
2022-09-18T07:34:09.283Z,67.40
2022-09-18T07:36:35.934Z,67.40
2022-09-18T07:39:02.677Z,67.40
2022-09-18T07:41:29.351Z,67.40
2022-09-18T07:43:56.280Z,67.30
2022-09-18T07:46:22.990Z,66.90
2022-09-18T07:48:49.914Z,67.30
2022-09-18T07:51:16.926Z,67.00
2022-09-18T07:53:43.958Z,67.30
2022-09-18T07:56:11.318Z,67.00
2022-09-18T07:58:38.367Z,66.70
2022-09-18T08:01:05.587Z,67.20
2022-09-18T08:03:32.616Z,67.20
2022-09-18T08:05:59.236Z,66.60
2022-09-18T08:08:26.006Z,66.70
2022-09-18T08:10:52.687Z,66.80
2022-09-18T08:13:19.307Z,66.80
2022-09-18T08:15:46.071Z,66.80
2022-09-18T08:18:12.842Z,67.00
2022-09-18T08:20:39.866Z,67.20
2022-09-18T08:23:07.245Z,67.00
2022-09-18T08:25:34.065Z,67.00
2022-09-18T08:28:01.733Z,67.00
2022-09-18T08:30:28.805Z,66.90
2022-09-18T08:33:02.608Z,67.10
2022-09-18T08:35:30.605Z,67.10
2022-09-18T08:37:58.138Z,67.10
2022-09-18T08:40:47.198Z,67.00
2022-09-18T08:43:18.794Z,67.00
2022-09-18T08:45:51.491Z,66.90
2022-09-18T08:48:26.415Z,66.90
2022-09-18T08:51:13.271Z,66.80
2022-09-18T08:53:43.138Z,67.00
2022-09-18T08:56:15.212Z,67.00
2022-09-18T08:58:47.423Z,67.00
2022-09-18T09:01:16.124Z,67.00
2022-09-18T09:03:45.680Z,66.90
2022-09-18T09:06:12.294Z,67.00
2022-09-18T09:08:57.662Z,66.90
2022-09-18T09:11:39.642Z,67.10
2022-09-18T09:14:16.974Z,67.00
2022-09-18T09:16:44.767Z,67.00
2022-09-18T09:19:27.491Z,67.00
2022-09-18T09:22:06.072Z,67.10
2022-09-18T09:24:32.702Z,66.90
2022-09-18T09:27:02.343Z,67.00
2022-09-18T09:29:30.344Z,66.90
2022-09-18T09:32:04.378Z,66.90
2022-09-18T09:34:36.919Z,67.00
2022-09-18T09:37:06.196Z,66.90
2022-09-18T09:39:39.629Z,66.60
2022-09-18T09:42:11.236Z,66.80
2022-09-18T09:44:49.796Z,66.40
2022-09-18T09:47:25.391Z,66.60
2022-09-18T09:50:00.659Z,67.00
2022-09-18T09:52:28.336Z,66.70
2022-09-18T09:55:17.472Z,66.50
2022-09-18T09:58:02.453Z,66.80
2022-09-18T10:00:32.050Z,66.60
2022-09-18T10:02:58.661Z,66.50
2022-09-18T10:05:44.007Z,66.50
2022-09-18T10:08:16.576Z,66.80
2022-09-18T10:10:50.385Z,66.40
2022-09-18T10:13:32.149Z,66.50
2022-09-18T10:16:03.615Z,66.40
2022-09-18T10:18:35.107Z,66.60
2022-09-18T10:21:12.476Z,66.60
2022-09-18T10:23:50.230Z,66.70
2022-09-18T10:26:28.300Z,66.60
2022-09-18T10:28:55.290Z,66.40
2022-09-18T10:31:21.941Z,66.40
2022-09-18T10:33:51.172Z,66.20
2022-09-18T10:36:27.078Z,66.20
2022-09-18T10:38:53.798Z,66.00
2022-09-18T10:41:29.350Z,65.90
2022-09-18T10:43:56.027Z,65.90
2022-09-18T10:46:27.564Z,65.90
2022-09-18T10:48:54.655Z,65.90
2022-09-18T10:51:21.763Z,65.80
2022-09-18T10:54:14.526Z,65.90
2022-09-18T10:56:42.036Z,65.90
2022-09-18T10:59:13.415Z,66.10
2022-09-18T11:01:44.083Z,66.40
2022-09-18T11:04:15.901Z,66.30
2022-09-18T11:06:44.430Z,66.40
2022-09-18T11:09:11.358Z,66.40
2022-09-18T11:11:38.492Z,66.40
2022-09-18T11:14:06.201Z,66.50
2022-09-18T11:16:37.864Z,66.60
2022-09-18T11:19:07.679Z,66.60
2022-09-18T11:21:41.421Z,66.70
2022-09-18T11:24:16.415Z,66.80
2022-09-18T11:26:49.316Z,66.90
2022-09-18T11:29:30.764Z,66.90
2022-09-18T11:32:16.161Z,67.00
2022-09-18T11:34:51.139Z,67.00
2022-09-18T11:37:44.254Z,67.00
2022-09-18T11:40:32.012Z,67.00
2022-09-18T11:42:59.201Z,67.10
2022-09-18T11:45:40.310Z,67.60
2022-09-18T11:48:16.009Z,67.10
2022-09-18T11:50:42.904Z,67.20
2022-09-18T11:53:13.789Z,67.50
2022-09-18T11:55:45.779Z,67.50
2022-09-18T11:58:17.001Z,67.40
2022-09-18T12:00:47.611Z,67.40
2022-09-18T12:03:21.549Z,67.30
2022-09-18T12:05:54.705Z,67.40
2022-09-18T12:08:40.295Z,67.40
2022-09-18T12:11:14.538Z,67.40
2022-09-18T12:13:56.479Z,68.80
2022-09-18T12:16:39.623Z,67.40
2022-09-18T12:19:19.866Z,67.30
2022-09-18T12:21:52.462Z,67.20
2022-09-18T12:24:19.120Z,67.20
2022-09-18T12:26:53.109Z,67.70
2022-09-18T12:29:33.087Z,67.20
2022-09-18T12:32:06.669Z,67.30
2022-09-18T12:34:40.292Z,67.40
2022-09-18T12:37:18.038Z,67.40
2022-09-18T12:40:05.810Z,67.60
2022-09-18T12:42:54.002Z,67.40
2022-09-18T12:45:35.987Z,67.50
2022-09-18T12:48:10.927Z,67.60
2022-09-18T12:50:45.577Z,67.60
2022-09-18T12:53:18.423Z,67.60
2022-09-18T12:55:48.134Z,67.50
2022-09-18T12:58:23.898Z,67.70
2022-09-18T13:00:51.587Z,67.70
2022-09-18T13:03:22.058Z,67.90
2022-09-18T13:06:00.207Z,67.70
2022-09-18T13:08:30.168Z,67.40
2022-09-18T13:11:00.858Z,67.70
2022-09-18T13:13:40.120Z,67.70
2022-09-18T13:16:11.673Z,67.60
2022-09-18T13:18:50.329Z,67.90
2022-09-18T13:21:23.973Z,67.90
2022-09-18T13:23:51.469Z,67.80
2022-09-18T13:26:18.788Z,67.80
2022-09-18T13:28:45.437Z,68.60
2022-09-18T13:31:15.212Z,68.70
2022-09-18T13:33:49.674Z,67.70
2022-09-18T13:36:22.311Z,67.80
2022-09-18T13:38:50.337Z,67.70
2022-09-18T13:41:17.727Z,67.60
2022-09-18T13:43:53.750Z,67.60
2022-09-18T13:46:32.673Z,67.70
2022-09-18T13:49:00.871Z,67.70
2022-09-18T13:51:31.405Z,67.80
2022-09-18T13:54:13.602Z,67.80
2022-09-18T13:56:59.081Z,67.80
2022-09-18T13:59:43.498Z,67.80
2022-09-18T14:02:25.308Z,67.30
2022-09-18T14:05:15.386Z,67.60
2022-09-18T14:07:43.608Z,67.80
2022-09-18T14:10:24.295Z,67.80
2022-09-18T14:13:12.297Z,67.50
2022-09-18T14:15:39.055Z,67.50
2022-09-18T14:18:14.376Z,67.70
2022-09-18T14:20:46.237Z,67.60
2022-09-18T14:23:31.832Z,67.80
2022-09-18T14:25:58.533Z,67.80
2022-09-18T14:28:25.575Z,67.00
2022-09-18T14:31:14.971Z,67.70
2022-09-18T14:33:42.583Z,67.90
2022-09-18T14:36:14.516Z,67.80
2022-09-18T14:38:41.729Z,67.80
2022-09-18T14:41:19.149Z,67.90
2022-09-18T14:43:48.872Z,67.90
2022-09-18T14:46:23.299Z,67.90
2022-09-18T14:48:50.254Z,68.00
2022-09-18T14:51:19.966Z,68.00
2022-09-18T14:53:49.921Z,68.10
2022-09-18T14:56:18.526Z,68.00
2022-09-18T14:58:46.682Z,69.50
2022-09-18T15:01:24.347Z,67.90
2022-09-18T15:03:52.172Z,67.90
2022-09-18T15:06:18.979Z,68.00
2022-09-18T15:08:47.391Z,68.00
2022-09-18T15:11:15.630Z,68.00
2022-09-18T15:13:42.535Z,68.00
2022-09-18T15:16:20.223Z,68.10
2022-09-18T15:18:47.316Z,68.00
2022-09-18T15:21:22.129Z,67.90
2022-09-18T15:23:49.240Z,67.70
2022-09-18T15:26:16.598Z,68.10
2022-09-18T15:28:45.205Z,67.90
2022-09-18T15:31:14.052Z,68.00
2022-09-18T15:33:45.715Z,67.90
2022-09-18T15:36:26.364Z,67.70
2022-09-18T15:38:53.535Z,67.70
2022-09-18T15:41:28.422Z,67.80
2022-09-18T15:43:55.278Z,67.80
2022-09-18T15:46:24.754Z,68.10
2022-09-18T15:48:52.042Z,67.80
2022-09-18T15:51:23.223Z,67.90
2022-09-18T15:54:09.820Z,67.70
2022-09-18T15:56:37.849Z,67.80
2022-09-18T15:59:06.485Z,67.80
2022-09-18T16:01:39.957Z,67.80
2022-09-18T16:04:17.972Z,67.70
2022-09-18T16:06:52.299Z,67.70
2022-09-18T16:09:24.065Z,67.60
2022-09-18T16:11:51.814Z,67.80
2022-09-18T16:14:37.119Z,67.70
2022-09-18T16:17:22.404Z,67.60
2022-09-18T16:19:49.179Z,67.40
2022-09-18T16:22:16.011Z,67.20
2022-09-18T16:24:42.675Z,67.50
2022-09-18T16:27:12.958Z,67.50
2022-09-18T16:29:39.633Z,67.50
2022-09-18T16:32:10.856Z,67.40
2022-09-18T16:34:37.518Z,67.10
2022-09-18T16:37:08.091Z,67.70
2022-09-18T16:39:37.983Z,67.30
2022-09-18T16:42:13.558Z,67.50
2022-09-18T16:44:40.617Z,67.50
2022-09-18T16:47:09.556Z,67.10
2022-09-18T16:49:37.261Z,67.00
2022-09-18T16:52:04.282Z,66.70
2022-09-18T16:54:31.387Z,67.80
2022-09-18T16:57:01.208Z,67.90
2022-09-18T16:59:28.991Z,68.00
2022-09-18T17:02:03.824Z,67.30
2022-09-18T17:04:31.299Z,67.80
2022-09-18T17:06:58.014Z,67.90
2022-09-18T17:09:24.931Z,67.70
2022-09-18T17:11:51.875Z,67.60
2022-09-18T17:14:19.036Z,67.90
2022-09-18T17:16:45.827Z,67.90
2022-09-18T17:19:12.961Z,68.00
2022-09-18T17:21:40.163Z,68.00
2022-09-18T17:24:07.143Z,67.60
2022-09-18T17:26:35.433Z,67.60
2022-09-18T17:29:02.102Z,69.00
2022-09-18T17:31:28.891Z,67.10
2022-09-18T17:33:56.094Z,67.40
2022-09-18T17:36:23.039Z,66.70
2022-09-18T17:38:49.678Z,67.30
2022-09-18T17:41:17.422Z,67.40
2022-09-18T17:43:44.350Z,67.80
2022-09-18T17:46:12.486Z,67.40
2022-09-18T17:48:39.487Z,67.30
2022-09-18T17:51:18.514Z,67.40
2022-09-18T17:53:46.559Z,67.10
2022-09-18T17:56:16.097Z,67.40
2022-09-18T17:58:44.289Z,67.40
2022-09-18T18:01:10.994Z,67.70
2022-09-18T18:03:38.099Z,67.60
2022-09-18T18:06:05.179Z,67.50
2022-09-18T18:08:32.183Z,67.50
2022-09-18T18:11:03.965Z,67.40
2022-09-18T18:13:30.648Z,67.20
2022-09-18T18:16:17.064Z,67.00
2022-09-18T18:18:43.762Z,67.00
2022-09-18T18:21:10.763Z,67.00
2022-09-18T18:23:40.380Z,66.90
2022-09-18T18:26:08.324Z,66.90
2022-09-18T18:28:35.663Z,66.80
2022-09-18T18:31:06.203Z,67.40
2022-09-18T18:33:33.707Z,66.70
2022-09-18T18:36:13.141Z,66.70
2022-09-18T18:38:43.934Z,66.70
2022-09-18T18:41:11.601Z,66.70
2022-09-18T18:43:40.325Z,66.70
2022-09-18T18:46:12.718Z,66.70
2022-09-18T18:48:44.635Z,66.70
2022-09-18T18:51:13.399Z,66.70
2022-09-18T18:53:40.772Z,66.70
2022-09-18T18:56:08.867Z,66.70
2022-09-18T18:58:35.562Z,66.60
2022-09-18T19:01:15.459Z,66.70
2022-09-18T19:03:45.574Z,66.80
2022-09-18T19:06:12.306Z,66.70
2022-09-18T19:08:38.995Z,66.80
2022-09-18T19:11:06.783Z,66.90
2022-09-18T19:13:41.288Z,66.80
2022-09-18T19:16:08.090Z,67.80
2022-09-18T19:18:34.966Z,66.90
2022-09-18T19:21:01.854Z,67.00
2022-09-18T19:23:28.511Z,66.20
2022-09-18T19:25:59.103Z,66.60
2022-09-18T19:28:28.316Z,67.00
2022-09-18T19:30:55.418Z,67.10
2022-09-18T19:33:23.159Z,67.20
2022-09-18T19:35:50.393Z,67.20
2022-09-18T19:38:20.385Z,67.20
2022-09-18T19:40:51.195Z,67.20
2022-09-18T19:43:21.701Z,67.20
2022-09-18T19:45:48.766Z,67.20
2022-09-18T19:48:20.650Z,67.00
2022-09-18T19:50:47.498Z,66.70
2022-09-18T19:53:15.242Z,68.10
2022-09-18T19:55:47.495Z,66.90
2022-09-18T19:58:15.465Z,67.10
2022-09-18T20:00:43.169Z,66.90
2022-09-18T20:03:10.268Z,67.00
2022-09-18T20:05:37.734Z,66.80
2022-09-18T20:08:06.465Z,66.80
2022-09-18T20:10:34.079Z,66.70
2022-09-18T20:13:00.763Z,66.70
2022-09-18T20:15:27.559Z,66.70
2022-09-18T20:17:56.032Z,67.30
2022-09-18T20:20:22.894Z,66.70
2022-09-18T20:22:52.761Z,66.70
2022-09-18T20:25:22.754Z,66.60
2022-09-18T20:27:49.646Z,66.60
2022-09-18T20:30:17.540Z,66.50
2022-09-18T20:32:44.255Z,66.60
2022-09-18T20:35:11.045Z,66.60
2022-09-18T20:37:37.750Z,66.90
2022-09-18T20:40:06.029Z,66.90
2022-09-18T20:42:34.541Z,66.80
2022-09-18T20:45:04.387Z,66.90
2022-09-18T20:47:35.203Z,66.70
2022-09-18T20:50:06.558Z,67.00
2022-09-18T20:52:37.134Z,66.50
2022-09-18T20:55:05.151Z,67.10
2022-09-18T20:57:32.442Z,66.50
2022-09-18T20:59:59.552Z,66.90
2022-09-18T21:02:26.458Z,66.80
2022-09-18T21:04:54.506Z,67.20
2022-09-18T21:07:21.398Z,66.30
2022-09-18T21:09:49.516Z,66.40
2022-09-18T21:12:16.203Z,67.20
2022-09-18T21:14:42.863Z,66.80
2022-09-18T21:17:10.128Z,67.20
2022-09-18T21:19:38.437Z,66.60
2022-09-18T21:22:05.374Z,66.50
2022-09-18T21:24:32.785Z,66.30
2022-09-18T21:26:59.458Z,66.60
2022-09-18T21:29:27.448Z,66.50
2022-09-18T21:31:55.479Z,66.40
2022-09-18T21:34:33.416Z,67.00
2022-09-18T21:37:01.685Z,66.40
2022-09-18T21:39:29.157Z,66.40
2022-09-18T21:41:56.302Z,66.40
2022-09-18T21:44:27.258Z,66.20
2022-09-18T21:46:57.203Z,66.10
2022-09-18T21:49:24.465Z,66.00
2022-09-18T21:51:53.611Z,66.10
2022-09-18T21:54:21.486Z,66.40
2022-09-18T21:56:51.984Z,66.40
2022-09-18T21:59:19.215Z,66.30
2022-09-18T22:01:47.729Z,66.40
2022-09-18T22:04:14.643Z,66.40
2022-09-18T22:06:42.815Z,66.40
2022-09-18T22:09:11.050Z,66.60
2022-09-18T22:11:38.195Z,66.80
2022-09-18T22:14:07.077Z,66.00
2022-09-18T22:16:33.919Z,66.80
2022-09-18T22:19:00.638Z,66.70
2022-09-18T22:21:31.272Z,66.50
2022-09-18T22:23:59.688Z,66.80
2022-09-18T22:26:27.411Z,66.60
2022-09-18T22:28:56.235Z,66.40
2022-09-18T22:31:23.636Z,66.70
2022-09-18T22:33:54.262Z,66.40
2022-09-18T22:36:20.926Z,65.90
2022-09-18T22:38:47.800Z,66.30
2022-09-18T22:41:14.666Z,66.10
2022-09-18T22:43:41.541Z,66.30
2022-09-18T22:46:09.420Z,66.40
2022-09-18T22:48:36.487Z,66.40
2022-09-18T22:51:04.267Z,67.00
2022-09-18T22:53:31.035Z,66.60
2022-09-18T22:56:01.492Z,66.60
2022-09-18T22:58:28.246Z,66.60
2022-09-18T23:00:54.995Z,66.30
2022-09-18T23:03:21.717Z,66.50
2022-09-18T23:05:48.462Z,66.20
2022-09-18T23:08:15.197Z,66.20
2022-09-18T23:10:42.330Z,66.40
2022-09-18T23:13:09.397Z,66.30
2022-09-18T23:15:37.942Z,66.10
2022-09-18T23:18:04.630Z,66.40
2022-09-18T23:20:31.354Z,66.30
2022-09-18T23:22:58.102Z,66.50
2022-09-18T23:25:24.831Z,66.40
2022-09-18T23:27:52.657Z,66.50
2022-09-18T23:30:20.335Z,66.80
2022-09-18T23:32:47.562Z,66.50
2022-09-18T23:35:14.379Z,66.60
2022-09-18T23:37:41.090Z,66.80
2022-09-18T23:40:08.161Z,66.70
2022-09-18T23:42:34.895Z,66.50
2022-09-18T23:45:01.658Z,66.50
2022-09-18T23:47:28.391Z,66.80
2022-09-18T23:49:55.278Z,66.20
2022-09-18T23:52:21.943Z,66.50
2022-09-18T23:54:48.687Z,66.50
2022-09-18T23:57:15.434Z,66.50
2022-09-18T23:59:42.411Z,67.20
